createdAt,value
2018-07-08T00:00:05.980Z,18.26
2018-07-08T00:01:06.068Z,18.14
2018-07-08T00:02:05.974Z,18.14
2018-07-08T00:03:06.003Z,18.20
2018-07-08T00:04:06.031Z,18.16
2018-07-08T00:05:06.043Z,18.17
2018-07-08T00:06:06.176Z,18.16
2018-07-08T00:07:06.076Z,18.24
2018-07-08T00:08:06.061Z,18.13
2018-07-08T00:09:06.074Z,18.27
2018-07-08T00:10:06.115Z,18.24
2018-07-08T00:11:06.223Z,18.16
2018-07-08T00:12:06.126Z,18.23
2018-07-08T00:13:06.153Z,18.31
2018-07-08T00:14:06.137Z,18.23
2018-07-08T00:15:06.162Z,18.27
2018-07-08T00:16:06.342Z,18.24
2018-07-08T00:17:06.175Z,18.26
2018-07-08T00:18:06.201Z,18.23
2018-07-08T00:19:06.230Z,18.24
2018-07-08T00:20:06.249Z,18.24
2018-07-08T00:21:06.409Z,18.23
2018-07-08T00:22:06.248Z,18.21
2018-07-08T00:23:06.269Z,18.17
2018-07-08T00:24:06.271Z,18.10
2018-07-08T00:25:06.320Z,18.10
2018-07-08T00:26:06.451Z,18.11
2018-07-08T00:27:06.342Z,18.11
2018-07-08T00:28:06.346Z,18.08
2018-07-08T00:29:06.339Z,18.05
2018-07-08T00:30:06.385Z,18.08
2018-07-08T00:31:06.371Z,18.05
2018-07-08T00:32:06.534Z,17.99
2018-07-08T00:33:06.395Z,17.95
2018-07-08T00:34:06.442Z,17.88
2018-07-08T00:35:06.433Z,17.84
2018-07-08T00:36:06.461Z,17.84
2018-07-08T00:37:06.550Z,17.83
2018-07-08T00:38:06.493Z,17.83
2018-07-08T00:39:06.480Z,17.87
2018-07-08T00:40:06.497Z,17.86
2018-07-08T00:41:06.513Z,17.69
2018-07-08T00:42:06.670Z,17.62
2018-07-08T00:43:06.536Z,17.63
2018-07-08T00:44:06.571Z,17.63
2018-07-08T00:45:06.564Z,17.58
2018-07-08T00:46:06.583Z,17.68
2018-07-08T00:47:06.735Z,17.60
2018-07-08T00:48:06.625Z,17.62
2018-07-08T00:49:06.614Z,17.54
2018-07-08T00:50:06.625Z,17.54
2018-07-08T00:51:06.637Z,17.52
2018-07-08T00:52:06.801Z,17.54
2018-07-08T00:53:06.674Z,17.46
2018-07-08T00:54:06.701Z,17.40
2018-07-08T00:55:06.688Z,17.43
2018-07-08T00:56:06.701Z,17.42
2018-07-08T00:57:06.816Z,17.36
2018-07-08T00:58:06.760Z,17.45
2018-07-08T00:59:06.742Z,17.46
2018-07-08T01:00:06.759Z,17.47
2018-07-08T01:01:06.769Z,17.49
2018-07-08T01:02:06.908Z,17.54
2018-07-08T01:03:06.793Z,17.45
2018-07-08T01:04:06.822Z,17.50
2018-07-08T01:05:06.842Z,17.45
2018-07-08T01:06:06.861Z,17.43
2018-07-08T01:07:06.849Z,17.46
2018-07-08T01:08:06.890Z,17.46
2018-07-08T01:09:06.878Z,17.47
2018-07-08T01:10:06.886Z,17.42
2018-07-08T01:11:06.900Z,17.45
2018-07-08T01:12:07.017Z,17.43
2018-07-08T01:13:06.928Z,17.42
2018-07-08T01:14:06.958Z,17.38
2018-07-08T01:15:06.979Z,17.38
2018-07-08T01:16:06.966Z,17.43
2018-07-08T01:17:07.154Z,17.32
2018-07-08T01:18:07.018Z,17.28
2018-07-08T01:19:07.005Z,17.38
2018-07-08T01:20:07.018Z,17.36
2018-07-08T01:21:07.039Z,17.35
2018-07-08T01:22:07.165Z,17.35
2018-07-08T01:23:07.054Z,17.36
2018-07-08T01:24:07.097Z,17.32
2018-07-08T01:25:07.108Z,17.31
2018-07-08T01:26:07.096Z,17.32
2018-07-08T01:27:07.235Z,17.32
2018-07-08T01:28:07.150Z,17.40
2018-07-08T01:29:07.154Z,17.40
2018-07-08T01:30:07.149Z,17.40
2018-07-08T01:31:07.158Z,17.43
2018-07-08T01:32:07.275Z,17.42
2018-07-08T01:33:07.187Z,17.45
2018-07-08T01:34:07.229Z,17.38
2018-07-08T01:35:07.224Z,17.35
2018-07-08T01:36:07.238Z,17.32
2018-07-08T01:37:07.419Z,17.30
2018-07-08T01:38:07.281Z,17.31
2018-07-08T01:39:07.268Z,17.30
2018-07-08T01:40:07.282Z,17.30
2018-07-08T01:41:07.295Z,17.31
2018-07-08T01:42:07.308Z,17.28
2018-07-08T01:43:07.494Z,17.32
2018-07-08T01:44:07.331Z,17.32
2018-07-08T01:45:07.339Z,17.32
2018-07-08T01:46:07.386Z,17.21
2018-07-08T01:47:07.403Z,17.22
2018-07-08T01:48:07.404Z,17.22
2018-07-08T01:49:07.495Z,17.21
2018-07-08T01:50:07.409Z,17.22
2018-07-08T01:51:07.426Z,17.15
2018-07-08T01:52:07.438Z,17.12
2018-07-08T01:53:07.452Z,17.18
2018-07-08T01:54:07.614Z,17.17
2018-07-08T01:55:07.502Z,17.13
2018-07-08T01:56:07.512Z,17.13
2018-07-08T01:57:07.511Z,17.15
2018-07-08T01:58:07.539Z,17.06
2018-07-08T01:59:07.651Z,17.06
2018-07-08T02:00:07.546Z,16.94
2018-07-08T02:01:07.578Z,16.91
2018-07-08T02:02:07.576Z,16.97
2018-07-08T02:03:07.584Z,16.95
2018-07-08T02:04:07.694Z,16.97
2018-07-08T02:05:07.606Z,16.92
2018-07-08T02:06:07.617Z,16.97
2018-07-08T02:07:07.677Z,16.99
2018-07-08T02:08:07.646Z,16.91
2018-07-08T02:09:07.809Z,16.99
2018-07-08T02:10:07.698Z,16.97
2018-07-08T02:11:07.705Z,16.95
2018-07-08T02:12:07.718Z,16.95
2018-07-08T02:13:07.731Z,17.00
2018-07-08T02:14:07.822Z,16.99
2018-07-08T02:15:07.742Z,17.05
2018-07-08T02:16:07.777Z,17.02
2018-07-08T02:17:07.791Z,17.06
2018-07-08T02:18:07.773Z,17.05
2018-07-08T02:19:07.887Z,17.12
2018-07-08T02:20:07.813Z,17.18
2018-07-08T02:21:07.813Z,17.15
2018-07-08T02:22:07.830Z,17.09
2018-07-08T02:23:07.847Z,17.18
2018-07-08T02:24:07.976Z,17.12
2018-07-08T02:25:07.894Z,17.13
2018-07-08T02:26:07.878Z,17.30
2018-07-08T02:27:07.886Z,17.24
2018-07-08T02:28:07.934Z,17.25
2018-07-08T02:29:08.017Z,17.32
2018-07-08T02:30:07.924Z,17.31
2018-07-08T02:31:07.940Z,17.32
2018-07-08T02:32:07.950Z,17.32
2018-07-08T02:33:07.991Z,17.32
2018-07-08T02:34:08.073Z,17.32
2018-07-08T02:35:08.017Z,17.30
2018-07-08T02:36:08.030Z,17.28
2018-07-08T02:37:08.045Z,17.35
2018-07-08T02:38:08.031Z,17.32
2018-07-08T02:39:08.191Z,17.32
2018-07-08T02:40:08.079Z,17.21
2018-07-08T02:41:08.084Z,17.25
2018-07-08T02:42:08.082Z,17.24
2018-07-08T02:43:08.087Z,17.20
2018-07-08T02:44:08.259Z,17.10
2018-07-08T02:45:08.145Z,17.07
2018-07-08T02:46:08.159Z,17.05
2018-07-08T02:47:08.148Z,16.99
2018-07-08T02:48:08.168Z,17.09
2018-07-08T02:49:08.331Z,17.02
2018-07-08T02:50:08.184Z,16.90
2018-07-08T02:51:08.223Z,16.92
2018-07-08T02:52:08.233Z,16.90
2018-07-08T02:53:08.250Z,16.91
2018-07-08T02:54:08.334Z,16.91
2018-07-08T02:55:08.279Z,16.81
2018-07-08T02:56:08.289Z,16.90
2018-07-08T02:57:08.298Z,16.80
2018-07-08T02:58:08.301Z,16.74
2018-07-08T02:59:08.400Z,16.74
2018-07-08T03:00:08.313Z,16.72
2018-07-08T03:01:08.322Z,16.76
2018-07-08T03:02:08.362Z,16.69
2018-07-08T03:03:08.356Z,16.66
2018-07-08T03:04:08.362Z,16.62
2018-07-08T03:05:08.528Z,16.66
2018-07-08T03:06:08.387Z,16.57
2018-07-08T03:07:08.398Z,16.57
2018-07-08T03:08:08.414Z,16.54
2018-07-08T03:09:08.429Z,16.48
2018-07-08T03:10:08.600Z,16.52
2018-07-08T03:11:08.468Z,16.45
2018-07-08T03:12:08.467Z,16.44
2018-07-08T03:13:08.475Z,16.39
2018-07-08T03:14:08.494Z,16.44
2018-07-08T03:15:08.624Z,16.36
2018-07-08T03:16:08.540Z,16.36
2018-07-08T03:17:08.524Z,16.26
2018-07-08T03:18:08.534Z,16.30
2018-07-08T03:19:08.575Z,16.33
2018-07-08T03:20:08.738Z,16.29
2018-07-08T03:21:08.597Z,16.26
2018-07-08T03:22:08.637Z,16.25
2018-07-08T03:23:08.603Z,16.30
2018-07-08T03:24:08.645Z,16.27
2018-07-08T03:25:08.751Z,16.13
2018-07-08T03:26:08.662Z,16.21
2018-07-08T03:27:08.686Z,16.27
2018-07-08T03:28:08.669Z,16.25
2018-07-08T03:29:08.675Z,16.17
2018-07-08T03:30:08.838Z,16.21
2018-07-08T03:31:08.700Z,16.14
2018-07-08T03:32:08.710Z,16.14
2018-07-08T03:33:08.750Z,16.17
2018-07-08T03:34:08.736Z,16.06
2018-07-08T03:35:08.911Z,16.07
2018-07-08T03:36:08.779Z,15.99
2018-07-08T03:37:08.799Z,16.06
2018-07-08T03:38:08.814Z,16.08
2018-07-08T03:39:08.826Z,16.00
2018-07-08T03:40:08.989Z,16.04
2018-07-08T03:41:08.824Z,16.06
2018-07-08T03:42:08.836Z,16.02
2018-07-08T03:43:08.850Z,16.06
2018-07-08T03:44:08.885Z,15.99
2018-07-08T03:45:09.025Z,16.07
2018-07-08T03:46:08.888Z,16.02
2018-07-08T03:47:08.899Z,16.10
2018-07-08T03:48:08.922Z,15.99
2018-07-08T03:49:08.924Z,15.96
2018-07-08T03:50:09.112Z,15.96
2018-07-08T03:51:08.959Z,15.91
2018-07-08T03:52:08.959Z,15.95
2018-07-08T03:53:08.974Z,15.88
2018-07-08T03:54:08.985Z,15.86
2018-07-08T03:55:09.212Z,15.86
2018-07-08T03:56:09.003Z,15.91
2018-07-08T03:57:09.052Z,15.89
2018-07-08T03:58:09.035Z,15.86
2018-07-08T03:59:09.047Z,15.84
2018-07-08T04:00:09.183Z,15.86
2018-07-08T04:01:09.071Z,15.86
2018-07-08T04:02:09.081Z,15.93
2018-07-08T04:03:09.094Z,15.91
2018-07-08T04:04:09.108Z,15.91
2018-07-08T04:05:09.265Z,15.91
2018-07-08T04:06:09.133Z,15.83
2018-07-08T04:07:09.148Z,15.81
2018-07-08T04:08:09.184Z,15.80
2018-07-08T04:09:09.169Z,15.86
2018-07-08T04:10:09.333Z,15.73
2018-07-08T04:11:09.191Z,15.75
2018-07-08T04:12:09.209Z,15.78
2018-07-08T04:13:09.249Z,15.73
2018-07-08T04:14:09.232Z,15.71
2018-07-08T04:15:09.314Z,15.65
2018-07-08T04:16:09.405Z,15.70
2018-07-08T04:17:09.289Z,15.71
2018-07-08T04:18:09.287Z,15.73
2018-07-08T04:19:09.285Z,15.62
2018-07-08T04:20:09.327Z,15.62
2018-07-08T04:21:09.314Z,15.67
2018-07-08T04:22:09.424Z,15.67
2018-07-08T04:23:09.334Z,15.67
2018-07-08T04:24:09.364Z,15.58
2018-07-08T04:25:09.360Z,15.58
2018-07-08T04:26:09.375Z,15.51
2018-07-08T04:27:09.560Z,15.55
2018-07-08T04:28:09.428Z,15.55
2018-07-08T04:29:09.410Z,15.56
2018-07-08T04:30:09.422Z,15.53
2018-07-08T04:31:09.443Z,15.55
2018-07-08T04:32:09.545Z,15.59
2018-07-08T04:33:09.455Z,15.58
2018-07-08T04:34:09.497Z,15.56
2018-07-08T04:35:09.482Z,15.63
2018-07-08T04:36:09.519Z,15.65
2018-07-08T04:37:09.612Z,15.58
2018-07-08T04:38:09.545Z,15.55
2018-07-08T04:39:09.544Z,15.55
2018-07-08T04:40:09.557Z,15.49
2018-07-08T04:41:09.548Z,15.49
2018-07-08T04:42:09.718Z,15.45
2018-07-08T04:43:09.600Z,15.49
2018-07-08T04:44:09.592Z,15.44
2018-07-08T04:45:09.610Z,15.49
2018-07-08T04:46:09.645Z,15.47
2018-07-08T04:47:09.788Z,15.56
2018-07-08T04:48:09.649Z,15.47
2018-07-08T04:49:09.664Z,15.49
2018-07-08T04:50:09.664Z,15.53
2018-07-08T04:51:09.674Z,15.53
2018-07-08T04:52:09.868Z,15.49
2018-07-08T04:53:09.725Z,15.45
2018-07-08T04:54:09.707Z,15.47
2018-07-08T04:55:09.721Z,15.45
2018-07-08T04:56:09.757Z,15.52
2018-07-08T04:57:09.841Z,15.43
2018-07-08T04:58:09.781Z,15.53
2018-07-08T04:59:09.792Z,15.53
2018-07-08T05:00:09.786Z,15.56
2018-07-08T05:01:09.819Z,15.49
2018-07-08T05:02:09.956Z,15.60
2018-07-08T05:03:09.813Z,15.58
2018-07-08T05:04:09.826Z,15.63
2018-07-08T05:05:09.864Z,15.63
2018-07-08T05:06:09.880Z,15.63
2018-07-08T05:07:10.011Z,15.55
2018-07-08T05:08:09.889Z,15.67
2018-07-08T05:09:09.913Z,15.73
2018-07-08T05:10:09.914Z,15.65
2018-07-08T05:11:09.909Z,15.65
2018-07-08T05:12:10.052Z,15.68
2018-07-08T05:13:09.942Z,15.67
2018-07-08T05:14:10.006Z,15.67
2018-07-08T05:15:09.977Z,15.73
2018-07-08T05:16:09.972Z,15.74
2018-07-08T05:17:10.161Z,15.81
2018-07-08T05:18:10.010Z,15.80
2018-07-08T05:19:10.017Z,15.74
2018-07-08T05:20:10.025Z,15.73
2018-07-08T05:21:10.057Z,15.75
2018-07-08T05:22:10.169Z,15.77
2018-07-08T05:23:10.060Z,15.80
2018-07-08T05:24:10.060Z,15.77
2018-07-08T05:25:10.089Z,15.84
2018-07-08T05:26:10.089Z,15.95
2018-07-08T05:27:10.230Z,15.89
2018-07-08T05:28:10.112Z,15.83
2018-07-08T05:29:10.127Z,15.86
2018-07-08T05:30:10.150Z,15.84
2018-07-08T05:31:10.172Z,15.93
2018-07-08T05:32:10.312Z,15.84
2018-07-08T05:33:10.201Z,15.93
2018-07-08T05:34:10.184Z,15.86
2018-07-08T05:35:10.206Z,15.84
2018-07-08T05:36:10.234Z,15.89
2018-07-08T05:37:10.251Z,15.93
2018-07-08T05:38:10.334Z,15.88
2018-07-08T05:39:10.273Z,15.93
2018-07-08T05:40:10.254Z,15.91
2018-07-08T05:41:10.284Z,15.86
2018-07-08T05:42:10.277Z,15.86
2018-07-08T05:43:10.312Z,15.83
2018-07-08T05:44:10.486Z,15.84
2018-07-08T05:45:10.313Z,15.89
2018-07-08T05:46:10.337Z,15.91
2018-07-08T05:47:10.349Z,15.84
2018-07-08T05:48:10.352Z,15.83
2018-07-08T05:49:10.525Z,15.96
2018-07-08T05:50:10.386Z,15.89
2018-07-08T05:51:10.412Z,15.89
2018-07-08T05:52:10.412Z,15.88
2018-07-08T05:53:10.409Z,16.00
2018-07-08T05:54:10.550Z,15.98
2018-07-08T05:55:10.442Z,15.93
2018-07-08T05:56:10.441Z,15.89
2018-07-08T05:57:10.485Z,15.91
2018-07-08T05:58:10.471Z,15.83
2018-07-08T05:59:10.662Z,15.92
2018-07-08T06:00:10.516Z,15.88
2018-07-08T06:01:10.529Z,15.78
2018-07-08T06:02:10.528Z,15.83
2018-07-08T06:03:10.552Z,15.86
2018-07-08T06:04:10.701Z,15.80
2018-07-08T06:05:10.558Z,15.84
2018-07-08T06:06:10.568Z,15.77
2018-07-08T06:07:10.598Z,15.75
2018-07-08T06:08:10.591Z,15.71
2018-07-08T06:09:10.701Z,15.71
2018-07-08T06:10:10.643Z,15.75
2018-07-08T06:11:10.647Z,15.78
2018-07-08T06:12:10.632Z,15.73
2018-07-08T06:13:10.649Z,15.68
2018-07-08T06:14:10.840Z,15.73
2018-07-08T06:15:10.684Z,15.70
2018-07-08T06:16:10.683Z,15.70
2018-07-08T06:17:10.732Z,15.67
2018-07-08T06:18:10.709Z,15.71
2018-07-08T06:19:10.843Z,15.67
2018-07-08T06:20:10.755Z,15.71
2018-07-08T06:21:10.739Z,15.74
2018-07-08T06:22:10.752Z,15.67
2018-07-08T06:23:10.775Z,15.52
2018-07-08T06:24:10.901Z,15.58
2018-07-08T06:25:10.801Z,15.60
2018-07-08T06:26:10.800Z,15.67
2018-07-08T06:27:10.816Z,15.74
2018-07-08T06:28:10.820Z,15.71
2018-07-08T06:29:10.950Z,15.67
2018-07-08T06:30:10.852Z,15.55
2018-07-08T06:31:10.856Z,15.59
2018-07-08T06:32:10.881Z,15.49
2018-07-08T06:33:10.884Z,15.52
2018-07-08T06:34:10.999Z,15.59
2018-07-08T06:35:10.931Z,15.58
2018-07-08T06:36:10.922Z,15.59
2018-07-08T06:37:10.922Z,15.58
2018-07-08T06:38:10.938Z,15.56
2018-07-08T06:39:11.148Z,15.49
2018-07-08T06:40:10.986Z,15.60
2018-07-08T06:41:10.987Z,15.59
2018-07-08T06:42:10.996Z,15.63
2018-07-08T06:43:10.998Z,15.62
2018-07-08T06:44:11.118Z,15.70
2018-07-08T06:45:11.015Z,15.59
2018-07-08T06:46:11.059Z,15.65
2018-07-08T06:47:11.066Z,15.55
2018-07-08T06:48:11.056Z,15.58
2018-07-08T06:49:11.226Z,15.68
2018-07-08T06:50:11.081Z,15.67
2018-07-08T06:51:11.090Z,15.63
2018-07-08T06:52:11.104Z,15.35
2018-07-08T06:53:11.124Z,15.59
2018-07-08T06:54:11.297Z,15.53
2018-07-08T06:55:11.137Z,15.56
2018-07-08T06:56:11.173Z,15.55
2018-07-08T06:57:11.157Z,15.56
2018-07-08T06:58:11.177Z,15.62
2018-07-08T06:59:11.294Z,15.67
2018-07-08T07:00:11.199Z,15.60
2018-07-08T07:01:11.201Z,15.62
2018-07-08T07:02:11.226Z,15.56
2018-07-08T07:03:11.253Z,15.52
2018-07-08T07:04:11.389Z,15.60
2018-07-08T07:05:11.251Z,15.59
2018-07-08T07:06:11.287Z,15.55
2018-07-08T07:07:11.273Z,15.47
2018-07-08T07:08:11.298Z,15.52
2018-07-08T07:09:11.299Z,15.52
2018-07-08T07:10:11.414Z,15.51
2018-07-08T07:11:11.319Z,15.47
2018-07-08T07:12:11.362Z,15.51
2018-07-08T07:13:11.350Z,15.52
2018-07-08T07:14:11.354Z,15.37
2018-07-08T07:15:11.476Z,15.38
2018-07-08T07:16:11.408Z,15.43
2018-07-08T07:17:11.401Z,15.43
2018-07-08T07:18:11.403Z,15.40
2018-07-08T07:19:11.408Z,15.40
2018-07-08T07:20:11.524Z,15.37
2018-07-08T07:21:11.459Z,15.33
2018-07-08T07:22:11.452Z,15.43
2018-07-08T07:23:11.459Z,15.31
2018-07-08T07:24:11.466Z,15.27
2018-07-08T07:25:11.641Z,15.23
2018-07-08T07:26:11.499Z,15.22
2018-07-08T07:27:11.526Z,15.18
2018-07-08T07:28:11.540Z,15.25
2018-07-08T07:29:11.524Z,15.18
2018-07-08T07:30:11.670Z,15.22
2018-07-08T07:31:11.548Z,15.22
2018-07-08T07:32:11.583Z,15.15
2018-07-08T07:33:11.598Z,15.16
2018-07-08T07:34:11.610Z,15.15
2018-07-08T07:35:11.741Z,15.15
2018-07-08T07:36:11.620Z,15.16
2018-07-08T07:37:11.665Z,15.04
2018-07-08T07:38:11.634Z,15.04
2018-07-08T07:39:11.637Z,15.07
2018-07-08T07:40:11.825Z,15.05
2018-07-08T07:41:11.686Z,15.07
2018-07-08T07:42:11.700Z,15.01
2018-07-08T07:43:11.711Z,15.01
2018-07-08T07:44:11.691Z,15.01
2018-07-08T07:45:11.817Z,15.00
2018-07-08T07:46:11.720Z,14.95
2018-07-08T07:47:11.739Z,15.02
2018-07-08T07:48:11.745Z,14.98
2018-07-08T07:49:11.752Z,15.01
2018-07-08T07:50:11.868Z,15.04
2018-07-08T07:51:11.794Z,15.04
2018-07-08T07:52:11.786Z,15.08
2018-07-08T07:53:11.812Z,15.04
2018-07-08T07:54:11.827Z,14.97
2018-07-08T07:55:11.997Z,14.93
2018-07-08T07:56:11.832Z,14.98
2018-07-08T07:57:11.850Z,15.00
2018-07-08T07:58:11.881Z,14.89
2018-07-08T07:59:11.890Z,14.97
2018-07-08T08:00:11.987Z,15.01
2018-07-08T08:01:11.890Z,15.02
2018-07-08T08:02:11.901Z,15.05
2018-07-08T08:03:11.917Z,15.08
2018-07-08T08:04:11.940Z,15.04
2018-07-08T08:05:12.060Z,15.04
2018-07-08T08:06:11.946Z,14.74
2018-07-08T08:07:11.967Z,14.64
2018-07-08T08:08:11.993Z,14.61
2018-07-08T08:09:12.005Z,14.63
2018-07-08T08:10:12.168Z,14.61
2018-07-08T08:11:12.028Z,14.51
2018-07-08T08:12:12.038Z,14.56
2018-07-08T08:13:12.051Z,14.44
2018-07-08T08:14:12.061Z,14.49
2018-07-08T08:15:12.223Z,14.46
2018-07-08T08:16:12.070Z,14.33
2018-07-08T08:17:12.069Z,14.41
2018-07-08T08:18:12.080Z,14.36
2018-07-08T08:19:12.095Z,14.27
2018-07-08T08:20:12.206Z,14.23
2018-07-08T08:21:12.114Z,14.21
2018-07-08T08:22:12.150Z,14.21
2018-07-08T08:23:12.142Z,14.16
2018-07-08T08:24:12.170Z,14.15
2018-07-08T08:25:12.306Z,14.20
2018-07-08T08:26:12.167Z,14.24
2018-07-08T08:27:12.181Z,14.16
2018-07-08T08:28:12.217Z,14.15
2018-07-08T08:29:12.213Z,14.16
2018-07-08T08:30:12.239Z,14.16
2018-07-08T08:31:12.376Z,14.27
2018-07-08T08:32:12.234Z,14.23
2018-07-08T08:33:12.243Z,14.27
2018-07-08T08:34:12.259Z,14.26
2018-07-08T08:35:12.264Z,14.23
2018-07-08T08:36:12.276Z,14.19
2018-07-08T08:37:12.413Z,14.13
2018-07-08T08:38:12.329Z,14.16
2018-07-08T08:39:12.339Z,14.13
2018-07-08T08:40:12.325Z,14.09
2018-07-08T08:41:12.345Z,14.19
2018-07-08T08:42:12.523Z,14.19
2018-07-08T08:43:12.371Z,14.11
2018-07-08T08:44:12.395Z,14.12
2018-07-08T08:45:12.390Z,14.13
2018-07-08T08:46:12.387Z,14.02
2018-07-08T08:47:12.576Z,13.99
2018-07-08T08:48:12.436Z,13.93
2018-07-08T08:49:12.446Z,13.94
2018-07-08T08:50:12.430Z,13.99
2018-07-08T08:51:12.441Z,13.91
2018-07-08T08:52:12.628Z,13.99
2018-07-08T08:53:12.469Z,13.91
2018-07-08T08:54:12.477Z,13.94
2018-07-08T08:55:12.520Z,13.95
2018-07-08T08:56:12.498Z,13.94
2018-07-08T08:57:12.621Z,13.93
2018-07-08T08:58:12.524Z,13.84
2018-07-08T08:59:12.560Z,13.90
2018-07-08T09:00:12.544Z,13.84
2018-07-08T09:01:12.553Z,13.87
2018-07-08T09:02:12.659Z,13.83
2018-07-08T09:03:12.588Z,13.83
2018-07-08T09:04:12.596Z,13.79
2018-07-08T09:05:12.594Z,13.83
2018-07-08T09:06:12.641Z,13.86
2018-07-08T09:07:12.743Z,13.81
2018-07-08T09:08:12.625Z,13.81
2018-07-08T09:09:12.669Z,13.81
2018-07-08T09:10:12.682Z,13.79
2018-07-08T09:11:12.660Z,13.70
2018-07-08T09:12:12.802Z,13.73
2018-07-08T09:13:12.685Z,13.83
2018-07-08T09:14:12.719Z,13.76
2018-07-08T09:15:12.735Z,13.72
2018-07-08T09:16:12.729Z,13.75
2018-07-08T09:17:12.935Z,13.76
2018-07-08T09:18:12.737Z,13.68
2018-07-08T09:19:12.762Z,13.65
2018-07-08T09:20:12.758Z,13.60
2018-07-08T09:21:12.783Z,13.63
2018-07-08T09:22:12.909Z,13.57
2018-07-08T09:23:12.803Z,13.60
2018-07-08T09:24:12.814Z,13.55
2018-07-08T09:25:12.812Z,13.55
2018-07-08T09:26:12.836Z,13.62
2018-07-08T09:27:13.009Z,13.53
2018-07-08T09:28:12.850Z,13.58
2018-07-08T09:29:12.914Z,13.54
2018-07-08T09:30:12.875Z,13.62
2018-07-08T09:31:12.879Z,13.62
2018-07-08T09:32:13.043Z,13.58
2018-07-08T09:33:12.899Z,13.55
2018-07-08T09:34:12.909Z,13.63
2018-07-08T09:35:12.924Z,13.57
2018-07-08T09:36:12.961Z,13.62
2018-07-08T09:37:13.060Z,13.60
2018-07-08T09:38:12.986Z,13.53
2018-07-08T09:39:13.150Z,13.58
2018-07-08T09:40:12.974Z,13.63
2018-07-08T09:41:12.987Z,13.54
2018-07-08T09:42:13.148Z,13.54
2018-07-08T09:43:13.840Z,13.50
2018-07-08T09:44:13.035Z,13.48
2018-07-08T09:45:13.028Z,13.50
2018-07-08T09:46:13.042Z,13.55
2018-07-08T09:47:13.227Z,13.48
2018-07-08T09:48:13.086Z,13.53
2018-07-08T09:49:13.076Z,13.50
2018-07-08T09:50:13.089Z,13.53
2018-07-08T09:51:13.103Z,13.50
2018-07-08T09:52:13.286Z,13.51
2018-07-08T09:53:13.125Z,13.48
2018-07-08T09:54:13.151Z,13.42
2018-07-08T09:55:13.162Z,13.53
2018-07-08T09:56:13.174Z,13.47
2018-07-08T09:57:13.155Z,13.47
2018-07-08T09:58:13.277Z,13.42
2018-07-08T09:59:13.190Z,13.36
2018-07-08T10:00:13.216Z,13.45
2018-07-08T10:01:13.194Z,13.35
2018-07-08T10:02:13.242Z,13.45
2018-07-08T10:03:13.216Z,13.53
2018-07-08T10:04:13.407Z,13.39
2018-07-08T10:05:13.269Z,13.48
2018-07-08T10:06:13.279Z,13.54
2018-07-08T10:07:13.262Z,13.44
2018-07-08T10:08:13.291Z,13.55
2018-07-08T10:09:13.417Z,13.51
2018-07-08T10:10:13.304Z,13.53
2018-07-08T10:11:13.315Z,13.62
2018-07-08T10:12:13.323Z,13.62
2018-07-08T10:13:13.327Z,13.66
2018-07-08T10:14:13.497Z,13.68
2018-07-08T10:15:13.352Z,13.72
2018-07-08T10:16:13.401Z,13.75
2018-07-08T10:17:13.371Z,13.75
2018-07-08T10:18:13.407Z,13.76
2018-07-08T10:19:13.546Z,13.81
2018-07-08T10:20:13.429Z,13.86
2018-07-08T10:21:13.441Z,13.90
2018-07-08T10:22:13.431Z,13.90
2018-07-08T10:23:13.438Z,13.93
2018-07-08T10:24:13.604Z,13.95
2018-07-08T10:25:13.538Z,13.97
2018-07-08T10:26:13.469Z,14.03
2018-07-08T10:27:13.479Z,14.09
2018-07-08T10:28:13.523Z,14.21
2018-07-08T10:29:13.628Z,14.20
2018-07-08T10:30:13.585Z,14.30
2018-07-08T10:31:13.527Z,14.36
2018-07-08T10:32:13.563Z,14.42
2018-07-08T10:33:13.558Z,14.46
2018-07-08T10:34:13.722Z,14.61
2018-07-08T10:35:13.569Z,14.63
2018-07-08T10:36:13.581Z,14.59
2018-07-08T10:37:13.620Z,14.63
2018-07-08T10:38:13.615Z,14.79
2018-07-08T10:39:13.767Z,14.83
2018-07-08T10:40:13.640Z,14.94
2018-07-08T10:41:13.640Z,14.98
2018-07-08T10:42:13.659Z,14.98
2018-07-08T10:43:13.699Z,15.08
2018-07-08T10:44:13.777Z,15.12
2018-07-08T10:45:13.692Z,15.18
2018-07-08T10:46:13.713Z,15.27
2018-07-08T10:47:13.721Z,15.43
2018-07-08T10:48:13.749Z,15.47
2018-07-08T10:49:13.885Z,15.56
2018-07-08T10:50:13.753Z,15.74
2018-07-08T10:51:13.759Z,15.78
2018-07-08T10:52:13.782Z,15.83
2018-07-08T10:53:13.784Z,16.06
2018-07-08T10:54:13.899Z,16.17
2018-07-08T10:55:13.885Z,16.21
2018-07-08T10:56:13.834Z,16.34
2018-07-08T10:57:13.834Z,16.48
2018-07-08T10:58:13.844Z,16.58
2018-07-08T10:59:13.991Z,16.72
2018-07-08T11:00:13.871Z,16.80
2018-07-08T11:01:13.904Z,16.99
2018-07-08T11:02:13.912Z,17.03
2018-07-08T11:03:13.912Z,17.22
2018-07-08T11:04:14.051Z,17.32
2018-07-08T11:05:13.940Z,17.39
2018-07-08T11:06:13.975Z,17.45
2018-07-08T11:07:13.966Z,17.60
2018-07-08T11:08:13.977Z,17.83
2018-07-08T11:09:14.169Z,17.88
2018-07-08T11:10:14.034Z,17.96
2018-07-08T11:11:14.023Z,17.99
2018-07-08T11:12:14.050Z,17.99
2018-07-08T11:13:14.052Z,18.13
2018-07-08T11:14:14.232Z,18.24
2018-07-08T11:15:14.099Z,18.29
2018-07-08T11:16:14.121Z,18.39
2018-07-08T11:17:14.131Z,18.45
2018-07-08T11:18:14.143Z,18.53
2018-07-08T11:19:14.304Z,18.63
2018-07-08T11:20:14.179Z,18.76
2018-07-08T11:21:14.160Z,18.96
2018-07-08T11:22:14.180Z,19.05
2018-07-08T11:23:14.190Z,19.19
2018-07-08T11:24:14.231Z,19.24
2018-07-08T11:25:14.370Z,19.32
2018-07-08T11:26:14.271Z,19.47
2018-07-08T11:27:14.272Z,19.52
2018-07-08T11:28:14.294Z,19.56
2018-07-08T11:29:14.310Z,19.80
2018-07-08T11:30:14.475Z,19.80
2018-07-08T11:31:14.308Z,19.90
2018-07-08T11:32:14.340Z,20.04
2018-07-08T11:33:14.386Z,20.11
2018-07-08T11:34:14.371Z,20.23
2018-07-08T11:35:14.507Z,20.27
2018-07-08T11:36:14.391Z,20.44
2018-07-08T11:37:14.435Z,20.58
2018-07-08T11:38:14.436Z,20.67
2018-07-08T11:39:14.451Z,20.82
2018-07-08T11:40:14.559Z,20.86
2018-07-08T11:41:14.474Z,21.03
2018-07-08T11:42:14.514Z,20.88
2018-07-08T11:43:14.524Z,20.88
2018-07-08T11:44:14.528Z,20.98
2018-07-08T11:45:14.690Z,21.16
2018-07-08T11:46:14.584Z,21.30
2018-07-08T11:47:14.574Z,21.41
2018-07-08T11:48:14.588Z,21.49
2018-07-08T11:49:14.609Z,21.61
2018-07-08T11:50:14.775Z,21.68
2018-07-08T11:51:14.641Z,21.71
2018-07-08T11:52:14.655Z,21.59
2018-07-08T11:53:14.672Z,21.73
2018-07-08T11:54:14.696Z,21.70
2018-07-08T11:55:14.935Z,22.00
2018-07-08T11:56:14.754Z,22.07
2018-07-08T11:57:14.745Z,22.14
2018-07-08T11:58:14.790Z,22.23
2018-07-08T11:59:14.779Z,22.34
2018-07-08T12:00:14.905Z,22.48
2018-07-08T12:01:14.843Z,22.46
2018-07-08T12:02:14.841Z,22.55
2018-07-08T12:03:14.881Z,22.54
2018-07-08T12:04:14.894Z,22.59
2018-07-08T12:05:15.038Z,22.69
2018-07-08T12:06:14.945Z,22.85
2018-07-08T12:07:14.931Z,22.99
2018-07-08T12:08:14.943Z,23.14
2018-07-08T12:09:14.987Z,23.25
2018-07-08T12:10:15.144Z,23.52
2018-07-08T12:11:15.002Z,23.57
2018-07-08T12:12:15.031Z,23.75
2018-07-08T12:13:15.066Z,23.71
2018-07-08T12:14:15.072Z,23.89
2018-07-08T12:15:15.238Z,24.03
2018-07-08T12:16:15.125Z,24.09
2018-07-08T12:17:15.127Z,24.24
2018-07-08T12:18:15.131Z,24.22
2018-07-08T12:19:15.148Z,24.33
2018-07-08T12:20:15.228Z,24.37
2018-07-08T12:21:15.346Z,24.44
2018-07-08T12:22:15.215Z,24.48
2018-07-08T12:23:15.277Z,24.67
2018-07-08T12:24:15.266Z,24.69
2018-07-08T12:25:15.301Z,24.87
2018-07-08T12:26:15.447Z,25.17
2018-07-08T12:27:15.330Z,25.30
2018-07-08T12:28:15.335Z,25.44
2018-07-08T12:29:15.356Z,25.41
2018-07-08T12:30:15.375Z,25.45
2018-07-08T12:31:15.552Z,25.48
2018-07-08T12:32:15.424Z,25.48
2018-07-08T12:33:15.445Z,25.67
2018-07-08T12:34:15.466Z,25.67
2018-07-08T12:35:15.508Z,25.48
2018-07-08T12:36:15.628Z,25.59
2018-07-08T12:37:15.522Z,25.69
2018-07-08T12:38:15.535Z,25.42
2018-07-08T12:39:15.578Z,25.52
2018-07-08T12:40:15.607Z,25.52
2018-07-08T12:41:15.708Z,25.70
2018-07-08T12:42:15.638Z,25.64
2018-07-08T12:43:15.656Z,25.78
2018-07-08T12:44:15.695Z,25.86
2018-07-08T12:45:15.688Z,26.01
2018-07-08T12:46:15.809Z,26.16
2018-07-08T12:47:15.759Z,26.24
2018-07-08T12:48:15.751Z,26.34
2018-07-08T12:49:15.779Z,26.30
2018-07-08T12:50:15.793Z,26.37
2018-07-08T12:51:15.926Z,26.39
2018-07-08T12:52:15.836Z,26.32